createdAt,value
2018-10-01T00:55:41.109Z,98299.45
2018-10-01T00:58:07.799Z,98308.11
2018-10-01T01:00:34.278Z,98310.50
2018-10-01T01:05:51.409Z,98318.34
2018-10-01T01:08:18.105Z,98315.56
2018-10-01T01:10:44.627Z,98315.06
2018-10-01T01:23:48.068Z,98315.77
2018-10-01T01:26:14.734Z,98307.63
2018-10-01T01:28:41.246Z,98307.02
2018-10-01T01:31:08.098Z,98300.13
2018-10-01T01:33:34.600Z,98302.42
2018-10-01T01:36:01.077Z,98295.02
2018-10-01T02:03:02.382Z,98298.81
2018-10-01T02:05:29.644Z,98297.41
2018-10-01T02:07:56.149Z,98299.52
2018-10-01T02:10:23.072Z,98295.94
2018-10-01T02:12:49.604Z,98295.88
2018-10-01T02:15:16.085Z,98291.84
2018-10-01T02:17:43.021Z,98293.95
2018-10-01T02:32:02.763Z,98302.57
2018-10-01T02:34:29.555Z,98307.52
2018-10-01T02:36:56.068Z,98308.84
2018-10-01T02:39:22.535Z,98311.41
2018-10-01T03:03:43.310Z,98321.23
2018-10-01T03:06:09.818Z,98326.89
2018-10-01T03:08:36.327Z,98324.26
2018-10-01T03:11:02.837Z,98322.23
2018-10-01T03:13:29.664Z,98319.91
2018-10-01T03:15:56.166Z,98313.69
2018-10-01T03:18:22.653Z,98318.42
2018-10-01T04:26:30.183Z,98334.38
2018-10-01T04:28:56.852Z,98326.92
2018-10-01T04:31:23.673Z,98322.87
2018-10-01T04:33:50.169Z,98327.36
2018-10-01T04:36:16.644Z,98325.33
2018-10-01T04:38:43.649Z,98317.72
2018-10-01T04:41:10.166Z,98323.18
2018-10-01T04:43:36.718Z,98336.86
2018-10-01T04:46:03.525Z,98337.55
2018-10-01T06:05:00.803Z,98400.22
2018-10-01T06:07:27.646Z,98408.19
2018-10-01T06:09:54.782Z,98417.84
2018-10-01T06:12:21.469Z,98414.41
2018-10-01T06:37:49.891Z,98451.73
2018-10-01T06:56:01.884Z,98466.66
2018-10-01T07:05:01.644Z,98476.53
2018-10-01T07:07:29.415Z,98478.35
2018-10-01T07:09:56.724Z,98482.02
2018-10-01T07:12:24.163Z,98481.16
2018-10-01T07:14:51.597Z,98479.84
2018-10-01T07:17:18.703Z,98485.19
2018-10-01T07:19:45.175Z,98483.14
2018-10-01T07:22:12.209Z,98483.92
2018-10-01T07:54:28.673Z,98516.20
2018-10-01T07:56:55.215Z,98524.91
2018-10-01T07:59:22.409Z,98519.98
2018-10-01T08:14:11.678Z,98521.56
2018-10-01T08:16:41.308Z,98523.98
2018-10-01T08:19:08.368Z,98536.37
2018-10-01T08:21:35.625Z,98532.51
2018-10-01T08:50:52.496Z,98561.17
2018-10-01T08:53:19.530Z,98561.66
2018-10-01T08:55:47.657Z,98565.59
2018-10-01T08:58:14.157Z,98565.50
2018-10-01T09:07:40.612Z,98581.23
2018-10-01T09:13:17.434Z,98584.16
2018-10-01T09:15:44.742Z,98590.63
2018-10-01T09:23:29.142Z,98592.36
2018-10-01T09:25:58.837Z,98594.02
2018-10-01T09:28:25.677Z,98596.59
2018-10-01T09:30:52.251Z,98598.75
2018-10-01T09:33:19.802Z,98602.39
2018-10-01T09:35:46.708Z,98611.67
2018-10-01T09:38:13.443Z,98606.08
2018-10-01T09:40:41.713Z,98609.02
2018-10-01T09:43:08.538Z,98598.06
2018-10-01T09:45:36.445Z,98588.59
2018-10-01T09:48:02.963Z,98596.73
2018-10-01T09:50:30.633Z,98603.61
2018-10-01T09:52:58.331Z,98583.83
2018-10-01T09:55:25.493Z,98583.48
2018-10-01T09:57:52.467Z,98589.84
2018-10-01T10:00:18.975Z,98595.31
2018-10-01T10:02:45.446Z,98591.98
2018-10-01T10:05:12.519Z,98592.38
2018-10-01T10:07:39.057Z,98603.64
2018-10-01T10:10:05.642Z,98601.03
2018-10-01T10:12:32.426Z,98595.41
2018-10-01T10:14:59.976Z,98617.95
2018-10-01T10:17:26.480Z,98586.81
2018-10-01T10:19:53.344Z,98596.47
2018-10-01T10:22:20.029Z,98592.78
2018-10-01T10:24:46.559Z,98576.00
2018-10-01T10:32:56.726Z,98588.97
2018-10-01T10:40:31.596Z,98593.35
2018-10-01T10:42:58.461Z,98582.50
2018-10-01T10:45:24.975Z,98571.27
2018-10-01T10:47:51.466Z,98581.40
2018-10-01T10:50:18.409Z,98585.20
2018-10-01T10:52:44.855Z,98588.08
2018-10-01T10:55:11.332Z,98616.61
2018-10-01T10:57:38.264Z,98629.72
2018-10-01T11:02:37.475Z,98635.13
2018-10-01T11:05:04.301Z,98634.00
2018-10-01T11:07:32.034Z,98636.86
2018-10-01T11:09:58.528Z,98630.66
2018-10-01T11:12:25.409Z,98622.23
2018-10-01T11:14:52.071Z,98616.66
2018-10-01T11:17:18.474Z,98617.14
2018-10-01T11:19:45.278Z,98621.41
2018-10-01T11:22:12.607Z,98613.31
2018-10-01T11:24:39.140Z,98608.67
2018-10-01T11:35:22.761Z,98609.17
2018-10-01T11:37:49.377Z,98613.58
2018-10-01T11:40:15.994Z,98609.30
2018-10-01T12:00:55.563Z,98682.29
2018-10-01T12:03:22.198Z,98708.94
2018-10-01T12:05:50.669Z,98731.23
2018-10-01T12:08:19.243Z,98708.13
2018-10-01T12:10:48.662Z,98693.73
2018-10-01T12:13:15.469Z,98704.87
2018-10-01T12:15:45.094Z,98698.63
2018-10-01T12:18:13.456Z,98709.88
2018-10-01T12:20:40.292Z,98705.77
2018-10-01T12:23:08.042Z,98712.59
2018-10-01T12:25:34.513Z,98696.64
2018-10-01T12:28:02.145Z,98700.70
2018-10-01T12:33:02.112Z,98690.36
2018-10-01T12:35:30.032Z,98689.27
2018-10-01T12:37:56.499Z,98700.72
2018-10-01T12:40:27.386Z,98755.48
2018-10-01T13:11:50.451Z,98704.08
2018-10-01T13:14:17.008Z,98704.59
2018-10-01T13:16:43.847Z,98708.81
2018-10-01T13:30:03.339Z,98709.66
2018-10-01T13:32:30.653Z,98702.98
2018-10-01T13:35:00.525Z,98705.45
2018-10-01T13:37:30.160Z,98707.11
2018-10-01T13:39:57.036Z,98701.48
2018-10-01T13:42:24.221Z,98698.45
2018-10-01T13:44:51.223Z,98703.24
2018-10-01T13:47:22.056Z,98690.59
2018-10-01T13:49:48.789Z,98706.77
2018-10-01T13:52:15.844Z,98708.08
2018-10-01T13:54:46.210Z,98731.87
2018-10-01T14:01:42.626Z,98732.40
2018-10-01T14:04:09.792Z,98727.22
2018-10-01T14:10:53.489Z,98728.48
2018-10-01T14:13:20.093Z,98719.56
2018-10-01T14:24:37.642Z,98708.20
2018-10-01T14:27:04.759Z,98705.64
2018-10-01T14:29:32.228Z,98709.56
2018-10-01T15:05:04.260Z,98727.81
2018-10-01T15:07:30.945Z,98739.33
2018-10-01T15:09:57.978Z,98738.50
2018-10-01T16:37:29.251Z,98842.41
2018-10-01T16:39:56.532Z,98846.83
2018-10-01T17:04:37.717Z,98856.14
2018-10-01T17:19:08.525Z,98882.52
2018-10-01T17:21:36.496Z,98894.41
2018-10-01T19:00:35.685Z,99002.25
2018-10-01T19:03:04.477Z,99004.97
2018-10-01T19:05:33.251Z,99004.73
2018-10-01T19:08:00.957Z,99008.06
2018-10-01T19:10:27.457Z,99005.53
2018-10-01T19:12:54.371Z,99009.45
2018-10-01T19:15:20.914Z,99002.09
2018-10-01T19:17:47.610Z,99007.67
2018-10-01T19:21:13.384Z,99009.73
2018-10-01T19:23:40.973Z,99004.55
2018-10-01T19:32:24.024Z,99009.45
2018-10-01T19:47:13.247Z,99024.72
2018-10-01T19:49:42.031Z,99024.11
2018-10-01T19:52:08.678Z,99025.06
2018-10-01T19:54:36.535Z,99019.98
2018-10-01T19:57:04.368Z,99020.09
2018-10-01T19:59:31.716Z,99015.88
2018-10-01T20:01:58.209Z,99016.88
2018-10-01T20:04:26.873Z,99018.72
2018-10-01T20:06:53.338Z,99021.78
2018-10-01T20:09:21.328Z,99020.39
2018-10-01T20:11:48.761Z,99025.58
2018-10-01T20:14:15.468Z,99025.10
2018-10-01T20:16:44.062Z,99032.52
2018-10-01T20:19:11.500Z,99030.45
2018-10-01T20:21:43.305Z,99028.88
2018-10-01T20:24:10.630Z,99029.09
2018-10-01T20:26:37.643Z,99030.84
2018-10-01T20:29:04.448Z,99032.16
2018-10-01T20:34:06.189Z,99031.13
2018-10-01T20:36:32.688Z,99033.20
2018-10-01T20:39:00.231Z,99033.57
2018-10-01T20:43:21.231Z,99032.98
2018-10-01T20:45:48.480Z,99033.48
2018-10-01T20:48:15.505Z,99042.31
2018-10-01T20:50:43.130Z,99036.79
2018-10-01T20:57:50.923Z,99040.02
2018-10-01T21:00:17.592Z,99041.68
2018-10-01T21:02:45.563Z,99041.93
2018-10-01T21:05:12.202Z,99036.75
2018-10-01T21:07:39.244Z,99038.97
2018-10-01T21:10:06.086Z,99041.58
2018-10-01T21:12:33.136Z,99042.38
2018-10-01T21:14:59.608Z,99041.78
2018-10-01T21:17:26.898Z,99035.97
2018-10-01T21:19:53.376Z,99034.56
2018-10-01T22:00:12.576Z,99019.11
2018-10-01T22:02:39.125Z,99022.31
2018-10-01T22:05:06.215Z,99023.23
2018-10-01T22:07:32.868Z,99027.70
2018-10-01T22:09:59.365Z,99023.81
2018-10-01T22:12:26.383Z,99028.67
2018-10-01T22:14:53.568Z,99028.45
2018-10-01T22:17:20.056Z,99025.53
2018-10-01T22:19:46.852Z,99024.22
2018-10-01T22:22:13.666Z,99026.91
2018-10-01T22:24:42.274Z,99027.26
2018-10-01T22:31:32.507Z,99020.10
2018-10-01T22:42:05.609Z,99017.63
2018-10-01T23:20:27.107Z,99017.77
2018-10-01T23:22:53.818Z,99015.09
2018-10-01T23:25:21.140Z,99016.41
2018-10-01T23:27:52.106Z,99020.73
2018-10-01T23:35:07.487Z,99021.52
2018-10-01T23:37:34.005Z,99018.17
2018-10-01T23:45:01.562Z,99009.81
2018-10-01T23:47:28.168Z,99015.66
2018-10-01T23:52:29.904Z,99018.69
2018-10-01T23:54:57.544Z,99016.50
2018-10-01T23:57:25.276Z,99018.17
2018-10-01T23:59:53.115Z,99004.07
